Terminal Aerodrome Forecast
Issued by NWS Charleston, WV

Current Version | Previous Version | Text Only | Print | Product List | Glossary Off
Versions: 1 2 3 4 5 6 7 8 9 10 11 12 13 14 15 16 17 18 19 20 21 22

675
FTUS41 KRLX 191507 AAA
TAFEKN
TAF AMD
KEKN 191507Z 1915/2012 25002KT P6SM OVC009
     FM191600 27005KT P6SM BKN012
     FM192200 28005KT P6SM SCT025
     FM200800 00000KT 5SM BR SCT025=

USA.gov is the U.S. government's official web portal to all federal, state and local government web resources and services.